Terminal Aerodrome Forecast
Issued by NWS

Home | Current Version | Previous Version | Text Only | Print | Product List | Glossary On
Versions: 1 2 3 4 5 6 7 8 9 10 11 12 13 14 15 16 17 18 19 20
000
FTUS43 KDLH 231720
TAFBRD
TAF
KBRD 231720Z 2318/2418 30008KT P6SM SKC
     FM240400 VRB04KT P6SM SCT070 OVC150
     FM241200 11009KT 6SM -RA OVC040
      TEMPO 2415/2418 4SM -RA OVC030=

USA.gov is the U.S. government's official web portal to all federal, state and local government web resources and services.